createdAt,value
2017-10-09T00:00:29.116Z,85.7
2017-10-09T00:01:30.955Z,85.5
2017-10-09T00:02:32.877Z,85.6
2017-10-09T00:03:34.698Z,85.5
2017-10-09T00:04:36.556Z,85.6
2017-10-09T00:05:38.457Z,86.0
2017-10-09T00:06:40.321Z,85.6
2017-10-09T00:07:42.152Z,85.6
2017-10-09T00:08:44.018Z,85.7
2017-10-09T00:09:45.864Z,85.8
2017-10-09T00:10:47.716Z,85.7
2017-10-09T00:11:49.608Z,85.0
2017-10-09T00:12:51.433Z,85.4
2017-10-09T00:13:53.242Z,85.3
2017-10-09T00:14:55.397Z,85.5
2017-10-09T00:15:57.207Z,85.5
2017-10-09T00:16:59.978Z,85.4
2017-10-09T00:18:01.822Z,85.3
2017-10-09T00:19:03.648Z,85.2
2017-10-09T00:20:05.486Z,85.3
2017-10-09T00:21:07.340Z,85.4
2017-10-09T00:22:09.177Z,85.3
2017-10-09T00:23:10.994Z,85.5
2017-10-09T00:24:12.841Z,85.2
2017-10-09T00:25:14.687Z,85.4
2017-10-09T00:26:16.626Z,85.4
2017-10-09T00:27:18.998Z,85.1
2017-10-09T00:28:20.923Z,85.7
2017-10-09T00:29:22.708Z,85.5
2017-10-09T00:30:24.549Z,85.7
2017-10-09T00:31:26.355Z,85.5
2017-10-09T00:32:28.217Z,85.1
2017-10-09T00:33:30.076Z,85.7
2017-10-09T00:34:31.892Z,85.2
2017-10-09T00:35:33.798Z,85.1
2017-10-09T00:36:35.713Z,85.3
2017-10-09T00:37:37.559Z,85.6
2017-10-09T00:38:39.403Z,85.6
2017-10-09T00:39:41.265Z,85.7
2017-10-09T00:40:43.114Z,85.0
2017-10-09T00:41:44.984Z,85.2
2017-10-09T00:42:46.779Z,85.4
2017-10-09T00:43:48.673Z,85.2
2017-10-09T00:44:50.518Z,85.3
2017-10-09T00:45:52.398Z,85.3
2017-10-09T00:46:54.228Z,85.5
2017-10-09T00:47:56.077Z,85.3
2017-10-09T00:48:57.968Z,85.2
2017-10-09T00:49:59.797Z,85.3
2017-10-09T00:51:01.625Z,85.1
2017-10-09T00:52:03.576Z,85.3
2017-10-09T00:53:05.424Z,85.4
2017-10-09T00:54:07.335Z,85.3
2017-10-09T00:55:09.186Z,85.3
2017-10-09T00:56:11.067Z,85.3
2017-10-09T00:57:12.944Z,85.2
2017-10-09T00:58:14.844Z,85.4
2017-10-09T00:59:16.729Z,85.2
2017-10-09T01:00:18.560Z,85.4
2017-10-09T01:01:20.403Z,85.1
2017-10-09T01:02:22.246Z,85.7
2017-10-09T01:03:24.083Z,85.4
2017-10-09T01:04:26.002Z,85.4
2017-10-09T01:05:27.819Z,85.5
2017-10-09T01:06:29.580Z,85.2
2017-10-09T01:07:31.377Z,85.2
2017-10-09T01:08:33.193Z,85.1
2017-10-09T01:09:35.030Z,85.6
2017-10-09T01:10:36.867Z,85.7
2017-10-09T01:11:38.650Z,85.7
2017-10-09T01:12:40.484Z,85.7
2017-10-09T01:13:42.334Z,85.7
2017-10-09T01:14:44.202Z,85.5
2017-10-09T01:15:46.068Z,85.7
2017-10-09T01:16:47.889Z,85.7
2017-10-09T01:17:49.691Z,85.7
2017-10-09T01:18:52.507Z,85.6
2017-10-09T01:19:54.380Z,85.7
2017-10-09T01:20:56.200Z,85.0
2017-10-09T01:21:58.077Z,85.6
2017-10-09T01:22:59.901Z,85.7
2017-10-09T01:24:01.779Z,85.5
2017-10-09T01:25:03.681Z,85.7
2017-10-09T01:26:05.453Z,85.5
2017-10-09T01:27:07.304Z,85.7
2017-10-09T01:28:09.154Z,85.5
2017-10-09T01:29:11.944Z,85.2
2017-10-09T01:30:13.788Z,85.7
2017-10-09T01:31:15.616Z,85.2
2017-10-09T01:32:17.398Z,85.1
2017-10-09T01:33:19.273Z,85.5
2017-10-09T01:34:21.092Z,85.7
2017-10-09T01:35:22.908Z,85.6
2017-10-09T01:36:24.692Z,85.2
2017-10-09T01:37:26.512Z,85.6
2017-10-09T01:38:28.443Z,85.7
2017-10-09T01:39:30.296Z,85.7
2017-10-09T01:40:32.359Z,85.7
2017-10-09T01:41:34.216Z,85.5
2017-10-09T01:42:36.061Z,85.1
2017-10-09T01:43:37.921Z,85.2
2017-10-09T01:44:39.744Z,85.6
2017-10-09T01:45:41.545Z,85.5
2017-10-09T01:46:43.424Z,85.4
2017-10-09T01:47:45.343Z,85.6
2017-10-09T01:48:47.144Z,85.3
2017-10-09T01:49:49.057Z,85.7
2017-10-09T01:50:50.917Z,85.8
2017-10-09T01:51:52.798Z,85.5
2017-10-09T01:52:54.690Z,85.5
2017-10-09T01:53:56.535Z,85.5
2017-10-09T01:54:58.496Z,85.4
2017-10-09T01:56:00.405Z,85.8
2017-10-09T01:57:02.308Z,85.3
2017-10-09T01:58:04.273Z,85.5
2017-10-09T01:59:06.227Z,85.4
2017-10-09T02:00:08.188Z,85.5
2017-10-09T02:01:09.996Z,85.7
2017-10-09T02:02:11.854Z,85.7
2017-10-09T02:03:13.727Z,86.3
2017-10-09T02:04:15.552Z,86.1
2017-10-09T02:05:17.711Z,86.3
2017-10-09T02:06:19.582Z,86.0
2017-10-09T02:07:21.450Z,85.8
2017-10-09T02:08:23.299Z,86.0
2017-10-09T02:09:25.136Z,86.4
2017-10-09T02:10:27.029Z,86.6
2017-10-09T02:11:28.909Z,86.3
2017-10-09T02:12:30.683Z,86.1
2017-10-09T02:13:32.501Z,86.7
2017-10-09T02:14:34.300Z,86.6
2017-10-09T02:15:36.165Z,86.7
2017-10-09T02:16:37.974Z,86.7
2017-10-09T02:17:39.786Z,86.6
2017-10-09T02:18:41.593Z,86.6
2017-10-09T02:19:43.481Z,86.7
2017-10-09T02:20:45.326Z,87.2
2017-10-09T02:21:47.256Z,87.6
2017-10-09T02:22:49.129Z,87.2
2017-10-09T02:23:51.059Z,87.1
2017-10-09T02:24:53.005Z,86.6
2017-10-09T02:25:54.926Z,87.0
2017-10-09T02:26:56.883Z,86.7
2017-10-09T02:27:58.748Z,86.7
2017-10-09T02:29:00.611Z,86.6
2017-10-09T02:30:02.509Z,86.6
2017-10-09T02:31:04.415Z,86.8
2017-10-09T02:32:06.258Z,87.5
2017-10-09T02:33:08.119Z,87.6
2017-10-09T02:34:09.937Z,87.3
2017-10-09T02:35:11.788Z,87.2
2017-10-09T02:36:13.671Z,86.8
2017-10-09T02:37:15.447Z,87.3
2017-10-09T02:38:17.286Z,87.1
2017-10-09T02:39:19.182Z,87.0
2017-10-09T02:40:20.989Z,87.6
2017-10-09T02:41:22.806Z,87.7
2017-10-09T02:42:24.688Z,87.9
2017-10-09T02:43:26.603Z,87.9
2017-10-09T02:44:28.452Z,87.5
2017-10-09T02:45:30.231Z,87.6
2017-10-09T02:46:32.176Z,87.8
2017-10-09T02:47:34.099Z,87.7
2017-10-09T02:48:35.949Z,88.0
2017-10-09T02:49:37.902Z,88.2
2017-10-09T02:50:39.756Z,88.0
2017-10-09T02:51:41.598Z,88.0
2017-10-09T02:52:43.462Z,88.1
2017-10-09T02:53:45.389Z,88.2
2017-10-09T02:54:47.224Z,88.2
2017-10-09T02:55:49.086Z,88.2
2017-10-09T02:56:50.994Z,87.8
2017-10-09T02:57:52.970Z,88.2
2017-10-09T02:58:54.980Z,88.9
2017-10-09T02:59:56.881Z,88.4
2017-10-09T03:00:58.738Z,89.1
2017-10-09T03:02:00.653Z,88.4
2017-10-09T03:03:02.531Z,88.8
2017-10-09T03:04:04.382Z,88.6
2017-10-09T03:05:06.222Z,88.3
2017-10-09T03:06:08.164Z,88.3
2017-10-09T03:07:10.001Z,88.9
2017-10-09T03:08:11.857Z,88.8
2017-10-09T03:09:13.691Z,88.2
2017-10-09T03:10:15.546Z,88.7
2017-10-09T03:11:17.489Z,88.2
2017-10-09T03:12:19.415Z,88.7
2017-10-09T03:13:21.364Z,88.4
2017-10-09T03:14:23.260Z,88.9
2017-10-09T03:15:25.079Z,88.7
2017-10-09T03:16:26.938Z,88.1
2017-10-09T03:17:28.848Z,88.7
2017-10-09T03:18:30.811Z,88.0
2017-10-09T03:19:32.781Z,88.1
2017-10-09T03:20:34.742Z,87.9
2017-10-09T03:21:36.682Z,88.7
2017-10-09T03:22:38.701Z,88.4
2017-10-09T03:23:40.564Z,88.0
2017-10-09T03:24:42.637Z,88.4
2017-10-09T03:25:44.583Z,88.4
2017-10-09T03:26:46.515Z,88.7
2017-10-09T03:27:48.427Z,88.5
2017-10-09T03:28:50.328Z,88.7
2017-10-09T03:29:52.388Z,88.8
2017-10-09T03:30:54.217Z,88.9
2017-10-09T03:31:56.245Z,88.9
2017-10-09T03:32:58.163Z,88.7
2017-10-09T03:34:00.073Z,88.4
2017-10-09T03:35:01.969Z,88.8
2017-10-09T03:36:03.912Z,89.2
2017-10-09T03:37:05.775Z,89.1
2017-10-09T03:38:07.899Z,89.1
2017-10-09T03:39:10.160Z,89.2
2017-10-09T03:40:12.081Z,89.1
2017-10-09T03:41:14.127Z,89.3
2017-10-09T03:42:16.017Z,89.0
2017-10-09T03:43:17.904Z,89.2
2017-10-09T03:44:19.775Z,89.0
2017-10-09T03:45:21.712Z,88.8
2017-10-09T03:46:23.509Z,88.7
2017-10-09T03:47:25.382Z,89.3
2017-10-09T03:48:27.282Z,89.6
2017-10-09T03:49:29.070Z,89.6
2017-10-09T03:50:30.924Z,89.4
2017-10-09T03:51:34.292Z,89.5
2017-10-09T03:52:36.101Z,89.3
2017-10-09T03:53:37.866Z,89.6
2017-10-09T03:54:39.746Z,89.7
2017-10-09T03:55:41.539Z,89.3
2017-10-09T03:56:43.423Z,89.6
2017-10-09T03:57:45.226Z,89.4
2017-10-09T03:58:46.995Z,89.6
2017-10-09T03:59:48.848Z,89.5
2017-10-09T04:00:50.693Z,90.3
2017-10-09T04:01:53.521Z,89.8
2017-10-09T04:02:55.283Z,89.6
2017-10-09T04:03:57.160Z,89.9
2017-10-09T04:04:59.189Z,89.7
2017-10-09T04:06:01.021Z,89.9
2017-10-09T04:07:02.854Z,89.7
2017-10-09T04:08:04.812Z,89.7
2017-10-09T04:09:06.722Z,89.8
2017-10-09T04:10:08.664Z,89.6
2017-10-09T04:11:10.846Z,89.8
2017-10-09T04:12:12.474Z,89.6
2017-10-09T04:13:13.938Z,89.4
2017-10-09T04:14:15.560Z,89.7
2017-10-09T04:15:17.118Z,89.9
2017-10-09T04:16:18.730Z,90.3
2017-10-09T04:17:20.268Z,90.2
2017-10-09T04:18:22.325Z,90.0
2017-10-09T04:19:23.968Z,90.1
2017-10-09T04:20:25.450Z,90.1
2017-10-09T04:21:27.056Z,89.9
2017-10-09T04:22:28.557Z,89.9
2017-10-09T04:23:30.123Z,89.5
2017-10-09T04:24:31.607Z,89.9
2017-10-09T04:25:33.104Z,89.5
2017-10-09T04:26:34.647Z,89.7
2017-10-09T04:27:36.196Z,89.7
2017-10-09T04:28:37.710Z,90.0
2017-10-09T04:29:39.249Z,90.1
2017-10-09T04:30:40.758Z,90.2
2017-10-09T04:31:42.251Z,89.9
2017-10-09T04:32:43.726Z,89.9
2017-10-09T04:33:45.228Z,90.1
2017-10-09T04:34:46.670Z,90.0
2017-10-09T04:35:48.154Z,90.0
2017-10-09T04:36:49.611Z,90.3
2017-10-09T04:37:51.076Z,90.3
2017-10-09T04:38:52.601Z,89.9
2017-10-09T04:39:54.083Z,90.0
2017-10-09T04:40:55.552Z,90.1
2017-10-09T04:41:56.987Z,90.2
2017-10-09T04:42:58.466Z,90.4
2017-10-09T04:43:59.934Z,90.6
2017-10-09T04:45:01.421Z,90.7
2017-10-09T04:46:02.911Z,90.7
2017-10-09T04:47:04.417Z,90.3
2017-10-09T04:48:05.931Z,90.8
2017-10-09T04:49:07.385Z,90.6
2017-10-09T04:50:09.052Z,90.6
2017-10-09T04:51:10.948Z,90.3
2017-10-09T04:52:12.308Z,90.6
2017-10-09T04:53:13.844Z,90.3
2017-10-09T04:54:16.175Z,90.6
2017-10-09T04:55:17.692Z,90.3
2017-10-09T04:56:19.470Z,90.5
2017-10-09T04:57:20.939Z,90.3
2017-10-09T04:58:22.470Z,90.4
2017-10-09T04:59:23.980Z,90.4
2017-10-09T05:00:25.531Z,90.5
2017-10-09T05:01:26.999Z,90.5
2017-10-09T05:02:28.529Z,90.6
2017-10-09T05:03:30.119Z,90.5
2017-10-09T05:04:31.665Z,90.5
2017-10-09T05:05:33.177Z,90.6
2017-10-09T05:06:34.713Z,90.5
2017-10-09T05:07:36.214Z,90.4
2017-10-09T05:08:37.747Z,90.4
2017-10-09T05:09:39.287Z,90.3
2017-10-09T05:10:40.788Z,90.5
2017-10-09T05:11:42.585Z,90.4
2017-10-09T05:12:44.410Z,90.5
2017-10-09T05:13:45.965Z,90.4
2017-10-09T05:14:47.519Z,90.3
2017-10-09T05:15:49.103Z,90.5
2017-10-09T05:16:50.639Z,90.6
2017-10-09T05:17:52.165Z,90.5
2017-10-09T05:18:53.945Z,90.5
2017-10-09T05:19:55.482Z,90.3
2017-10-09T05:20:57.041Z,90.6
2017-10-09T05:21:58.713Z,90.6
2017-10-09T05:23:00.613Z,90.6
2017-10-09T05:24:02.484Z,90.6
2017-10-09T05:25:04.341Z,90.3
2017-10-09T05:26:06.141Z,90.4
2017-10-09T05:27:08.051Z,90.6
2017-10-09T05:28:09.897Z,90.6
2017-10-09T05:29:11.505Z,90.6
2017-10-09T05:30:13.449Z,90.6
2017-10-09T05:31:15.527Z,90.6
2017-10-09T05:32:17.511Z,90.7
2017-10-09T05:33:19.141Z,90.6
2017-10-09T05:34:20.803Z,90.5
2017-10-09T05:35:22.409Z,90.5
2017-10-09T05:36:23.971Z,90.5
2017-10-09T05:37:25.599Z,90.4
2017-10-09T05:38:27.250Z,90.4
2017-10-09T05:39:28.896Z,90.5
2017-10-09T05:40:30.615Z,90.5
2017-10-09T05:41:32.303Z,90.6
2017-10-09T05:42:34.035Z,90.4
2017-10-09T05:43:36.063Z,90.4
2017-10-09T05:44:38.162Z,90.6
2017-10-09T05:45:40.136Z,90.5
2017-10-09T05:46:42.110Z,90.6
2017-10-09T05:47:43.909Z,90.7
2017-10-09T05:48:45.421Z,90.5
2017-10-09T05:49:46.995Z,90.5
2017-10-09T05:50:48.563Z,90.5
2017-10-09T05:51:50.061Z,90.6
2017-10-09T05:52:51.602Z,90.7
2017-10-09T05:53:53.160Z,90.6
2017-10-09T05:54:54.640Z,90.6
2017-10-09T05:55:56.143Z,90.4
2017-10-09T05:56:57.629Z,90.5
2017-10-09T05:57:59.188Z,90.3
2017-10-09T05:59:00.755Z,90.3
2017-10-09T06:00:02.383Z,90.7
2017-10-09T06:01:03.890Z,90.3
2017-10-09T06:02:05.568Z,90.5
2017-10-09T06:03:07.012Z,90.8
2017-10-09T06:04:09.206Z,90.8
2017-10-09T06:05:10.697Z,90.6
2017-10-09T06:06:12.147Z,90.6
2017-10-09T06:07:13.623Z,90.8
2017-10-09T06:08:15.110Z,90.7
2017-10-09T06:09:16.582Z,90.8
2017-10-09T06:10:18.070Z,90.6
2017-10-09T06:11:19.553Z,90.5
2017-10-09T06:12:21.028Z,90.6
2017-10-09T06:13:22.492Z,90.5
2017-10-09T06:14:23.989Z,90.6
2017-10-09T06:15:25.430Z,90.7
2017-10-09T06:16:26.889Z,90.4
2017-10-09T06:17:28.356Z,90.3
2017-10-09T06:18:29.857Z,90.3
2017-10-09T06:19:31.350Z,90.7
2017-10-09T06:20:32.836Z,90.7
2017-10-09T06:21:34.333Z,90.6
2017-10-09T06:22:35.801Z,90.4
2017-10-09T06:23:37.269Z,90.7
2017-10-09T06:24:38.762Z,90.6
2017-10-09T06:25:40.216Z,90.5
2017-10-09T06:26:41.648Z,90.7
2017-10-09T06:27:43.084Z,90.4
2017-10-09T06:28:44.495Z,90.4
2017-10-09T06:29:45.894Z,90.7
2017-10-09T06:30:47.309Z,90.4
2017-10-09T06:31:48.715Z,90.3
2017-10-09T06:32:50.111Z,90.8
2017-10-09T06:33:51.519Z,90.7
2017-10-09T06:34:52.919Z,90.6
2017-10-09T06:35:54.316Z,90.5
2017-10-09T06:36:55.722Z,90.4
2017-10-09T06:37:57.122Z,90.5
2017-10-09T06:38:58.529Z,90.6
2017-10-09T06:39:59.934Z,90.3
2017-10-09T06:41:01.332Z,90.8
2017-10-09T06:42:02.743Z,90.7
2017-10-09T06:43:04.151Z,90.6
2017-10-09T06:44:05.590Z,90.7
2017-10-09T06:45:06.997Z,90.7
2017-10-09T06:46:08.427Z,90.6
2017-10-09T06:47:09.908Z,90.9
2017-10-09T06:48:11.304Z,90.5
2017-10-09T06:49:12.716Z,90.8
2017-10-09T06:50:14.118Z,90.7
2017-10-09T06:51:15.522Z,90.3
2017-10-09T06:52:16.928Z,90.3
2017-10-09T06:53:18.324Z,90.6
2017-10-09T06:54:19.728Z,90.4
2017-10-09T06:55:21.139Z,90.6
2017-10-09T06:56:22.543Z,90.7
2017-10-09T06:57:23.945Z,90.7
2017-10-09T06:58:25.342Z,90.3
2017-10-09T06:59:26.758Z,90.4
2017-10-09T07:00:28.154Z,90.5
2017-10-09T07:01:29.563Z,90.4
2017-10-09T07:02:30.974Z,90.4
2017-10-09T07:03:32.398Z,90.5
2017-10-09T07:04:33.801Z,90.5
2017-10-09T07:05:35.204Z,90.5
2017-10-09T07:06:36.611Z,90.4
2017-10-09T07:07:38.018Z,90.4
2017-10-09T07:08:39.423Z,90.6
2017-10-09T07:09:40.839Z,90.4
2017-10-09T07:10:42.244Z,90.6
2017-10-09T07:11:43.647Z,90.5
2017-10-09T07:12:45.053Z,90.3
2017-10-09T07:13:46.460Z,90.4
2017-10-09T07:14:47.862Z,90.4
2017-10-09T07:15:49.264Z,90.7
2017-10-09T07:16:50.675Z,90.3
2017-10-09T07:17:52.079Z,90.7
2017-10-09T07:18:53.485Z,90.8
2017-10-09T07:19:54.884Z,90.6
2017-10-09T07:20:56.282Z,90.6
2017-10-09T07:21:57.687Z,90.1
2017-10-09T07:22:59.098Z,89.8
2017-10-09T07:24:00.509Z,90.0
2017-10-09T07:25:01.911Z,89.8
2017-10-09T07:26:03.337Z,89.7
2017-10-09T07:27:04.785Z,90.3
2017-10-09T07:28:06.264Z,90.1
2017-10-09T07:29:07.723Z,90.1
2017-10-09T07:30:09.299Z,90.1
2017-10-09T07:31:10.758Z,90.2
2017-10-09T07:32:12.308Z,90.4
2017-10-09T07:33:13.848Z,90.4
2017-10-09T07:34:15.400Z,90.4
2017-10-09T07:35:16.946Z,90.3
2017-10-09T07:36:18.477Z,90.1
2017-10-09T07:37:19.989Z,90.0
2017-10-09T07:38:21.513Z,90.4
2017-10-09T07:39:23.080Z,90.0
2017-10-09T07:40:24.513Z,90.0
2017-10-09T07:41:26.078Z,90.4
2017-10-09T07:42:27.573Z,90.1
2017-10-09T07:43:29.078Z,89.9
2017-10-09T07:44:30.565Z,89.8
2017-10-09T07:45:32.031Z,89.4
2017-10-09T07:46:33.453Z,90.0
2017-10-09T07:47:34.899Z,90.0
2017-10-09T07:48:36.368Z,89.8
2017-10-09T07:49:37.863Z,89.8
2017-10-09T07:50:39.347Z,89.8
2017-10-09T07:51:40.834Z,89.8
2017-10-09T07:52:42.357Z,89.8
2017-10-09T07:53:43.837Z,89.7
2017-10-09T07:54:45.325Z,89.9
2017-10-09T07:55:46.834Z,89.6
2017-10-09T07:56:48.328Z,89.7
2017-10-09T07:57:49.789Z,89.6
2017-10-09T07:58:51.238Z,89.7
2017-10-09T07:59:52.672Z,89.2
2017-10-09T08:00:54.108Z,89.3
2017-10-09T08:01:55.561Z,89.1
2017-10-09T08:02:57.014Z,88.9
2017-10-09T08:03:58.458Z,89.0
2017-10-09T08:05:00.005Z,88.8
2017-10-09T08:06:01.477Z,88.9
2017-10-09T08:07:02.969Z,89.1
2017-10-09T08:08:04.431Z,88.9
2017-10-09T08:09:05.896Z,88.9
2017-10-09T08:10:07.400Z,89.1
2017-10-09T08:11:08.928Z,89.1
2017-10-09T08:12:10.415Z,89.3
2017-10-09T08:13:11.894Z,88.9
2017-10-09T08:14:13.390Z,88.5
2017-10-09T08:15:14.836Z,89.3
2017-10-09T08:16:16.364Z,89.1
2017-10-09T08:17:17.853Z,88.7
2017-10-09T08:18:19.356Z,88.4
2017-10-09T08:19:20.842Z,88.3
2017-10-09T08:20:23.213Z,88.4
2017-10-09T08:21:24.719Z,88.1
2017-10-09T08:22:26.238Z,88.4
2017-10-09T08:23:27.713Z,88.9
2017-10-09T08:24:29.247Z,88.5
2017-10-09T08:25:30.713Z,88.2
2017-10-09T08:26:32.204Z,88.3
2017-10-09T08:27:33.637Z,87.9
2017-10-09T08:28:35.064Z,88.1
2017-10-09T08:29:36.552Z,87.7
2017-10-09T08:30:38.022Z,87.8
2017-10-09T08:31:39.472Z,87.7
2017-10-09T08:32:40.893Z,87.5
2017-10-09T08:33:42.331Z,87.6
2017-10-09T08:34:43.760Z,87.1
2017-10-09T08:35:45.200Z,87.6
2017-10-09T08:36:46.634Z,87.5
2017-10-09T08:37:48.039Z,87.3
2017-10-09T08:38:49.486Z,87.7
2017-10-09T08:39:50.908Z,87.6
2017-10-09T08:40:52.320Z,87.8
2017-10-09T08:41:53.724Z,87.3
2017-10-09T08:42:55.141Z,87.4
2017-10-09T08:43:56.552Z,87.3
2017-10-09T08:44:57.951Z,88.0
2017-10-09T08:45:59.369Z,88.1
2017-10-09T08:47:00.773Z,88.1
2017-10-09T08:48:02.209Z,87.9
2017-10-09T08:49:03.627Z,87.4
2017-10-09T08:50:05.027Z,88.1
2017-10-09T08:51:06.443Z,87.9
2017-10-09T08:52:07.852Z,87.8
2017-10-09T08:53:09.334Z,87.9
2017-10-09T08:54:10.790Z,87.8
2017-10-09T08:55:13.225Z,87.9
2017-10-09T08:56:14.708Z,88.2
2017-10-09T08:57:16.198Z,88.1
2017-10-09T08:58:17.675Z,88.3
2017-10-09T08:59:19.112Z,88.0
2017-10-09T09:00:20.579Z,88.1
2017-10-09T09:01:22.008Z,88.2
2017-10-09T09:02:23.447Z,88.2
2017-10-09T09:03:24.903Z,88.2
2017-10-09T09:04:26.381Z,88.3
2017-10-09T09:05:27.846Z,88.2
2017-10-09T09:06:29.262Z,88.2
2017-10-09T09:07:30.730Z,87.9
2017-10-09T09:08:32.187Z,88.0
2017-10-09T09:09:33.669Z,87.3
2017-10-09T09:10:35.131Z,87.6
2017-10-09T09:11:36.634Z,87.5
2017-10-09T09:12:38.143Z,87.6
2017-10-09T09:13:39.637Z,87.9
2017-10-09T09:14:41.111Z,87.9
2017-10-09T09:15:42.605Z,87.6
2017-10-09T09:16:44.103Z,87.1
2017-10-09T09:17:45.572Z,87.4
2017-10-09T09:18:47.067Z,86.7
2017-10-09T09:19:48.529Z,87.0
2017-10-09T09:20:49.964Z,87.0
2017-10-09T09:21:51.393Z,86.6
2017-10-09T09:22:52.856Z,87.0
2017-10-09T09:23:54.368Z,86.9
2017-10-09T09:24:55.887Z,86.4
2017-10-09T09:25:57.375Z,86.8
2017-10-09T09:26:58.857Z,86.7
2017-10-09T09:28:00.354Z,86.8
2017-10-09T09:29:01.848Z,87.0
2017-10-09T09:30:03.347Z,86.9
2017-10-09T09:31:04.844Z,86.8
2017-10-09T09:32:06.339Z,86.2
2017-10-09T09:33:07.801Z,86.4
2017-10-09T09:34:09.272Z,86.2
2017-10-09T09:35:10.810Z,86.9
2017-10-09T09:36:12.253Z,86.5
2017-10-09T09:37:13.722Z,86.6
2017-10-09T09:38:15.163Z,86.9
2017-10-09T09:39:16.688Z,86.4
2017-10-09T09:40:18.154Z,86.6
2017-10-09T09:41:19.664Z,86.3
2017-10-09T09:42:21.181Z,86.3
2017-10-09T09:43:22.670Z,86.4
2017-10-09T09:44:24.139Z,86.4
2017-10-09T09:45:25.639Z,86.3
2017-10-09T09:46:27.118Z,86.5
2017-10-09T09:47:28.583Z,86.5
2017-10-09T09:48:30.076Z,86.4
2017-10-09T09:49:31.574Z,86.4
2017-10-09T09:50:33.044Z,86.8
2017-10-09T09:51:34.575Z,86.5
2017-10-09T09:52:36.049Z,86.9
2017-10-09T09:53:37.544Z,86.8
2017-10-09T09:54:39.034Z,86.6
2017-10-09T09:55:40.554Z,86.9
2017-10-09T09:56:42.044Z,86.5
2017-10-09T09:57:43.547Z,86.8
2017-10-09T09:58:45.060Z,86.8
2017-10-09T09:59:46.536Z,86.9
2017-10-09T10:00:48.041Z,87.1
2017-10-09T10:01:49.512Z,87.0
2017-10-09T10:02:51.018Z,86.9
2017-10-09T10:03:52.498Z,87.1
2017-10-09T10:04:53.985Z,86.8
2017-10-09T10:05:55.461Z,86.9
2017-10-09T10:06:56.920Z,86.5
2017-10-09T10:07:58.434Z,86.5
2017-10-09T10:08:59.932Z,87.2
2017-10-09T10:10:01.430Z,87.2
2017-10-09T10:11:02.893Z,87.1
2017-10-09T10:12:04.396Z,87.1
2017-10-09T10:13:05.882Z,87.0
2017-10-09T10:14:07.339Z,87.2
2017-10-09T10:15:08.853Z,87.2
2017-10-09T10:16:10.343Z,87.0
2017-10-09T10:17:11.822Z,87.1
2017-10-09T10:18:13.316Z,87.2
2017-10-09T10:19:14.838Z,87.0
2017-10-09T10:20:16.343Z,86.6
2017-10-09T10:21:17.822Z,87.5
2017-10-09T10:22:19.303Z,87.6
2017-10-09T10:23:20.789Z,87.0
2017-10-09T10:24:22.285Z,87.4
2017-10-09T10:25:23.767Z,87.2
2017-10-09T10:26:25.235Z,87.3
2017-10-09T10:27:26.710Z,87.1
2017-10-09T10:28:28.214Z,87.8
2017-10-09T10:29:29.712Z,87.5
2017-10-09T10:30:31.184Z,87.8
2017-10-09T10:31:32.662Z,87.4
2017-10-09T10:32:34.164Z,87.6
2017-10-09T10:33:35.686Z,87.6
2017-10-09T10:34:37.208Z,87.5
2017-10-09T10:35:38.710Z,87.4
2017-10-09T10:36:40.179Z,87.6
2017-10-09T10:37:41.665Z,87.4
2017-10-09T10:38:43.157Z,88.1
2017-10-09T10:39:44.617Z,88.0
2017-10-09T10:40:46.101Z,88.0
2017-10-09T10:41:47.599Z,88.0
2017-10-09T10:42:49.056Z,88.0
2017-10-09T10:43:50.517Z,88.0
2017-10-09T10:44:51.958Z,87.4
2017-10-09T10:45:53.379Z,87.6
2017-10-09T10:46:54.830Z,87.2
2017-10-09T10:47:56.269Z,87.6
2017-10-09T10:48:57.796Z,87.6
2017-10-09T10:49:59.326Z,87.9
2017-10-09T10:51:00.809Z,87.6
2017-10-09T10:52:02.323Z,87.4
2017-10-09T10:53:03.807Z,87.6
2017-10-09T10:54:06.403Z,87.8
2017-10-09T10:55:07.918Z,87.9
2017-10-09T10:56:09.420Z,87.8
2017-10-09T10:57:10.917Z,87.6
2017-10-09T10:58:12.411Z,87.2
2017-10-09T10:59:14.616Z,87.6
2017-10-09T11:00:16.129Z,87.5
2017-10-09T11:01:17.632Z,87.7
2017-10-09T11:02:19.131Z,87.7
2017-10-09T11:03:27.273Z,87.8
2017-10-09T11:04:28.462Z,87.5
2017-10-09T11:05:30.058Z,87.4
2017-10-09T11:06:31.581Z,87.6
2017-10-09T11:07:33.040Z,87.7
2017-10-09T11:08:34.589Z,87.4
2017-10-09T11:09:36.162Z,87.7
2017-10-09T11:10:37.648Z,87.7
2017-10-09T11:11:39.118Z,87.7
2017-10-09T11:12:40.767Z,87.8
2017-10-09T11:13:42.310Z,87.6
2017-10-09T11:14:43.867Z,87.7
2017-10-09T11:15:45.744Z,87.6
2017-10-09T11:16:47.850Z,87.6
2017-10-09T11:17:49.925Z,87.6
2017-10-09T11:18:51.528Z,87.6
2017-10-09T11:19:53.057Z,87.8
2017-10-09T11:20:54.719Z,87.7
2017-10-09T11:21:56.267Z,87.6
2017-10-09T11:22:57.849Z,87.8
2017-10-09T11:23:59.430Z,87.8
2017-10-09T11:25:00.968Z,86.9
2017-10-09T11:26:02.505Z,87.3
2017-10-09T11:27:04.040Z,86.9
2017-10-09T11:28:06.357Z,87.1
2017-10-09T11:29:07.967Z,87.3
2017-10-09T11:30:09.421Z,87.2
2017-10-09T11:31:10.981Z,87.1
2017-10-09T11:32:12.525Z,87.1
2017-10-09T11:33:14.059Z,87.4
2017-10-09T11:34:15.724Z,87.4
2017-10-09T11:35:17.291Z,87.2
2017-10-09T11:36:18.845Z,87.1
2017-10-09T11:37:20.448Z,87.0
2017-10-09T11:38:22.067Z,87.2
2017-10-09T11:39:23.641Z,87.1
2017-10-09T11:40:25.196Z,87.3
2017-10-09T11:41:26.771Z,87.0
2017-10-09T11:42:28.347Z,87.0
2017-10-09T11:43:29.935Z,87.1
2017-10-09T11:44:31.450Z,87.3
2017-10-09T11:45:32.987Z,87.3
2017-10-09T11:46:34.530Z,87.2
2017-10-09T11:47:36.066Z,87.4
2017-10-09T11:48:37.622Z,87.4
2017-10-09T11:49:39.149Z,87.1
2017-10-09T11:50:40.660Z,87.1
2017-10-09T11:51:42.259Z,87.3
2017-10-09T11:52:43.825Z,87.1
2017-10-09T11:53:45.389Z,86.6
2017-10-09T11:54:46.960Z,87.1
2017-10-09T11:55:48.477Z,86.6
2017-10-09T11:56:50.023Z,87.0
2017-10-09T11:57:51.558Z,86.9
2017-10-09T11:58:53.117Z,86.9
2017-10-09T11:59:54.647Z,86.7
2017-10-09T12:00:56.187Z,86.4
2017-10-09T12:01:57.759Z,86.6
2017-10-09T12:02:59.293Z,86.2
2017-10-09T12:04:00.820Z,86.6
2017-10-09T12:05:02.338Z,86.7
2017-10-09T12:06:03.871Z,86.6
2017-10-09T12:07:05.439Z,86.7
2017-10-09T12:08:06.947Z,86.5
2017-10-09T12:09:08.489Z,86.3
2017-10-09T12:10:10.004Z,86.6
2017-10-09T12:11:11.515Z,86.6
2017-10-09T12:12:13.060Z,86.7
2017-10-09T12:13:14.611Z,86.0
2017-10-09T12:14:16.111Z,86.4
2017-10-09T12:15:17.670Z,86.3
2017-10-09T12:16:19.262Z,86.1
2017-10-09T12:17:20.817Z,86.4
2017-10-09T12:18:22.353Z,86.2
2017-10-09T12:19:23.841Z,85.5
2017-10-09T12:20:25.404Z,85.6
2017-10-09T12:21:26.970Z,85.4
2017-10-09T12:22:28.512Z,85.4
2017-10-09T12:23:30.165Z,85.5
2017-10-09T12:24:31.767Z,86.2
2017-10-09T12:25:33.316Z,86.1
2017-10-09T12:26:34.900Z,86.2
2017-10-09T12:27:36.532Z,86.2
2017-10-09T12:28:38.124Z,86.2
2017-10-09T12:29:39.681Z,86.2
2017-10-09T12:30:41.293Z,86.4
2017-10-09T12:31:42.849Z,86.2
2017-10-09T12:32:44.451Z,86.1
2017-10-09T12:33:46.011Z,85.8
2017-10-09T12:34:47.570Z,86.2
2017-10-09T12:35:49.133Z,85.9
2017-10-09T12:36:50.662Z,86.4
2017-10-09T12:37:52.450Z,86.2
2017-10-09T12:38:53.947Z,86.2
2017-10-09T12:39:55.500Z,87.0
2017-10-09T12:40:57.024Z,86.7
2017-10-09T12:41:58.614Z,86.7
2017-10-09T12:43:00.173Z,86.5
2017-10-09T12:44:01.788Z,86.7
2017-10-09T12:45:03.378Z,87.0
2017-10-09T12:46:04.949Z,87.0
2017-10-09T12:47:06.491Z,87.0
2017-10-09T12:48:08.029Z,86.9
2017-10-09T12:49:09.647Z,87.0
2017-10-09T12:50:11.212Z,86.7
2017-10-09T12:51:12.764Z,87.1
2017-10-09T12:52:14.339Z,86.6
2017-10-09T12:53:15.921Z,86.9
2017-10-09T12:54:17.509Z,86.9
2017-10-09T12:55:19.062Z,86.7
2017-10-09T12:56:20.610Z,86.7
2017-10-09T12:57:22.175Z,86.6
2017-10-09T12:58:23.731Z,86.7
2017-10-09T12:59:25.317Z,87.1
2017-10-09T13:00:26.912Z,87.2
2017-10-09T13:01:28.548Z,87.2
2017-10-09T13:02:30.141Z,87.1
2017-10-09T13:03:31.725Z,87.4
2017-10-09T13:04:33.304Z,87.2
2017-10-09T13:05:34.872Z,87.2
2017-10-09T13:06:36.431Z,87.3
2017-10-09T13:07:37.897Z,87.2
2017-10-09T13:08:39.361Z,87.5
2017-10-09T13:09:40.837Z,87.2
2017-10-09T13:10:42.290Z,86.9
2017-10-09T13:11:43.738Z,87.0
2017-10-09T13:12:45.455Z,87.7
2017-10-09T13:13:46.966Z,87.1
2017-10-09T13:14:48.417Z,87.4
2017-10-09T13:15:49.861Z,87.5
2017-10-09T13:16:51.299Z,87.4
2017-10-09T13:17:52.749Z,87.6
2017-10-09T13:18:54.222Z,87.5
2017-10-09T13:19:55.670Z,87.5
2017-10-09T13:20:57.127Z,87.6
2017-10-09T13:21:58.566Z,87.5
2017-10-09T13:22:59.998Z,87.4
2017-10-09T13:24:01.443Z,87.5
2017-10-09T13:25:02.877Z,87.5
2017-10-09T13:26:04.319Z,87.3
2017-10-09T13:27:05.752Z,87.6
2017-10-09T13:28:07.221Z,87.7
2017-10-09T13:29:08.650Z,87.5
2017-10-09T13:30:10.077Z,86.7
2017-10-09T13:31:11.506Z,87.1
2017-10-09T13:32:12.946Z,87.0
2017-10-09T13:33:14.350Z,87.0
2017-10-09T13:34:15.792Z,87.2
2017-10-09T13:35:17.211Z,87.2
2017-10-09T13:36:18.617Z,86.9
2017-10-09T13:37:20.044Z,87.1
2017-10-09T13:38:21.454Z,87.2
2017-10-09T13:39:22.878Z,86.7
2017-10-09T13:40:24.470Z,86.7